Weather at Tumasek Heliport

Public forecast

Using degrees Celsius for public forecast. Weather courtesy of forecast.io.

Closest aviation weather report (METAR) to Tumasek Heliport

Closest report is Brunei International Airport, 4.0 nm (7.5 km) N.

2022/11/26 08:30 (retrieved 21 minutes ago)

WBSB 260830Z 32005KT 9999 FEW015 FEW016CB BKN280 30/26 Q1008 NOSIG

Closest aviation forecast (TAF) to Tumasek Heliport

Closest forecast is Brunei International Airport, 4.0 nm (7.5 km) N.

2022/11/26 06:18 (retrieved 3 hours ago)

TAF WBSB 260450Z 2606/2712 30008KT 9999 FEW016 FEW017CB TEMPO 2608/2612 6000 TSRA BECMG 2610/2612 02005KT SCT015 FEW016CB